TAF and METAR

Could not understand the following METAR

FQCH 011200Z /////KT 9999 FEW020 28/19 Q1018

TAF for Chimoio Airport

TAF FQCH 011000Z 0112/0212 15012KT 9999 FEW020 TX30/0113Z TN19/0203Z BECMG 0118/0120 09008KT BECMG 0200/0202 21007KT
Report created 1. apr 12:00

between 1. apr 14:00 - 2. apr 14:00

wind 12 knots from SSE (150°) visibility > 10km some clouds (~25% cover) at 2000 feet Max temperature 30° expected today at around 15 o'clock Min temperature 19° expected tomorrow at around 05 o'clock

becoming between 1. apr 20:00 - 1. apr 22:00

wind 8 knots from E (090°)

becoming between 2. apr 02:00 - 2. apr 04:00

wind 7 knots from SSW (210°)